Time;durP1;ratioP1;P1;durP2;ratioP2;P2;SDS_P1;SDS_P2;PMS_P1;PMS_P2;Temp;Humidity;BMP_temperature;BMP_pressure;BME280_temperature;BME280_humidity;BME280_pressure;Samples;Min_cycle;Max_cycle;Signal;HPM_P1;HPM_P2
2023/06/08 00:01:53;;;;;;;18.80;9.30;;;;;;;15.18;80.79;151101.47;5065101;28;20186;-68
2023/06/08 00:04:19;;;;;;;14.90;8.38;;;;;;;15.18;80.89;151100.22;5065207;28;20029;-68
2023/06/08 00:06:45;;;;;;;15.88;8.90;;;;;;;15.07;80.25;151071.91;5064577;28;20083;-68
2023/06/08 00:09:10;;;;;;;16.98;8.25;;;;;;;15.10;80.31;151079.63;5065036;28;20341;-68
2023/06/08 00:11:39;;;;;;;13.25;8.65;;;;;;;15.11;79.69;151082.19;5064996;28;20233;-69
2023/06/08 00:14:04;;;;;;;16.70;9.15;;;;;;;14.83;79.56;151012.69;5064775;28;20025;-69
2023/06/08 00:16:30;;;;;;;16.90;8.50;;;;;;;14.98;80.37;151050.03;5065185;28;20028;-70
2023/06/08 00:19:00;;;;;;;14.32;8.35;;;;;;;14.99;79.84;151053.88;5064878;28;20028;-70
2023/06/08 00:21:26;;;;;;;12.85;8.63;;;;;;;14.92;80.20;151034.56;5065111;28;20025;-69
2023/06/08 00:23:52;;;;;;;18.35;8.48;;;;;;;14.94;79.94;151041.00;5044747;28;20025;-69
2023/06/08 00:26:18;;;;;;;17.90;8.52;;;;;;;14.93;80.38;151038.41;5060628;28;20365;-68
2023/06/08 00:28:47;;;;;;;13.05;8.98;;;;;;;14.90;80.17;151030.72;5064933;28;20040;-68
2023/06/08 00:31:13;;;;;;;16.80;8.50;;;;;;;14.88;79.70;151025.59;5064898;28;20032;-69
2023/06/08 00:33:38;;;;;;;11.32;8.48;;;;;;;14.86;80.31;151020.41;5064727;28;20036;-67
2023/06/08 00:36:04;;;;;;;14.82;8.70;;;;;;;14.90;79.76;151029.44;5064616;28;20025;-67
2023/06/08 00:38:30;;;;;;;13.70;8.20;;;;;;;14.83;79.73;151012.69;5064596;28;20036;-67
2023/06/08 00:40:56;;;;;;;14.02;9.38;;;;;;;14.84;79.14;151015.28;5064487;28;20029;-68
2023/06/08 00:43:22;;;;;;;11.40;8.48;;;;;;;14.84;79.38;151015.28;5064597;28;20035;-68
2023/06/08 00:45:47;;;;;;;11.00;7.93;;;;;;;14.81;79.46;151008.84;5064584;28;20036;-68
2023/06/08 00:48:15;;;;;;;16.40;7.85;;;;;;;14.78;79.67;151001.13;5064706;28;20089;-67
2023/06/08 00:50:43;;;;;;;14.38;8.25;;;;;;;14.76;79.34;150995.97;5064358;28;20052;-68
2023/06/08 00:53:09;;;;;;;12.70;8.30;;;;;;;14.65;79.29;150967.66;5064261;28;20032;-66
2023/06/08 00:55:34;;;;;;;13.48;7.55;;;;;;;14.64;79.49;150966.38;5064205;28;20048;-66
2023/06/08 00:58:01;;;;;;;13.93;7.75;;;;;;;14.57;80.37;150948.34;5064187;28;20340;-66
2023/06/08 01:00:28;;;;;;;12.75;8.48;;;;;;;14.55;80.41;150943.22;5064509;28;20063;-67
2023/06/08 01:02:55;;;;;;;13.50;8.50;;;;;;;14.52;79.89;150934.19;5059679;28;20093;-67
2023/06/08 01:05:21;;;;;;;12.20;7.85;;;;;;;14.42;79.88;150909.72;5059082;28;20041;-66
2023/06/08 01:08:36;;;;;;;17.40;8.45;;;;;;;14.50;81.05;150930.31;5063978;28;20095;-67
2023/06/08 01:11:11;;;;;;;12.73;8.60;;;;;;;14.48;80.80;150926.47;5041818;28;20057;-66
2023/06/08 01:13:41;;;;;;;14.68;7.72;;;;;;;14.40;80.77;150905.88;5062927;28;20266;-66
2023/06/08 01:16:10;;;;;;;17.40;10.65;;;;;;;14.44;80.88;150914.91;5062597;28;20024;-66
2023/06/08 01:18:38;;;;;;;16.30;8.80;;;;;;;14.18;80.39;150850.59;5063765;28;20032;-66
2023/06/08 01:21:35;;;;;;;16.05;8.90;;;;;;;14.48;81.07;150925.19;5063764;28;20040;-66
2023/06/08 01:24:03;;;;;;;14.32;7.97;;;;;;;14.49;80.75;150927.75;5043665;28;20064;-67
2023/06/08 01:26:31;;;;;;;12.50;7.65;;;;;;;14.45;80.82;150918.75;5075499;28;20078;-67
2023/06/08 01:28:56;;;;;;;12.63;7.78;;;;;;;14.46;80.73;150920.03;5063622;28;20293;-66
2023/06/08 01:31:22;;;;;;;15.15;8.05;;;;;;;14.45;80.12;150918.75;5063485;28;20036;-66
2023/06/08 01:33:48;;;;;;;14.50;8.30;;;;;;;14.43;80.54;150912.31;5062440;28;20229;-70
2023/06/08 01:36:20;;;;;;;17.13;8.40;;;;;;;14.46;80.63;150920.03;5063507;28;20020;-69
2023/06/08 01:38:55;;;;;;;13.98;8.10;;;;;;;14.45;80.78;150917.44;5063302;28;20029;-70
2023/06/08 01:41:26;;;;;;;12.05;8.30;;;;;;;14.48;80.63;150925.19;5063333;28;20028;-71
2023/06/08 01:43:52;;;;;;;16.33;8.17;;;;;;;14.44;81.12;150914.91;5063226;28;20171;-70
2023/06/08 01:46:21;;;;;;;14.70;8.38;;;;;;;14.46;80.29;150921.28;5063232;28;20036;-69
2023/06/08 01:48:49;;;;;;;19.38;8.93;;;;;;;14.35;80.94;150891.72;5063085;28;20031;-69
2023/06/08 01:51:17;;;;;;;16.58;8.40;;;;;;;14.42;80.42;150909.72;5063332;28;20029;-69
2023/06/08 01:53:42;;;;;;;13.73;8.38;;;;;;;14.45;80.91;150917.44;5063360;28;20029;-70
2023/06/08 01:56:09;;;;;;;21.15;11.30;;;;;;;14.46;80.74;150921.28;5062436;28;20040;-70
2023/06/08 01:58:34;;;;;;;20.48;15.88;;;;;;;14.47;81.00;150922.63;5062019;28;20283;-69
2023/06/08 02:01:00;;;;;;;18.90;9.90;;;;;;;14.46;80.64;150920.03;5062828;28;20083;-67
2023/06/08 02:03:25;;;;;;;18.70;8.52;;;;;;;14.38;81.49;150900.75;5063114;28;20032;-67
2023/06/08 02:05:51;;;;;;;17.05;8.68;;;;;;;14.37;81.41;150896.91;5062821;28;20087;-67
2023/06/08 02:08:16;;;;;;;16.98;8.88;;;;;;;14.41;81.90;150907.16;5062955;28;20257;-68
2023/06/08 02:10:42;;;;;;;17.63;9.20;;;;;;;14.46;81.58;150920.03;5060305;28;20029;-67
2023/06/08 02:13:07;;;;;;;14.23;8.45;;;;;;;14.53;81.37;150936.75;5047586;28;20033;-67
2023/06/08 02:15:33;;;;;;;13.88;8.70;;;;;;;14.55;81.17;150941.88;5062921;28;20025;-68
2023/06/08 02:17:59;;;;;;;15.38;9.07;;;;;;;14.62;81.27;150961.25;5062793;28;20029;-67
2023/06/08 02:20:25;;;;;;;15.60;8.23;;;;;;;14.70;80.54;150979.28;5062845;28;20029;-66
2023/06/08 02:22:50;;;;;;;15.10;8.98;;;;;;;14.82;80.62;151010.09;5062961;28;20040;-66
2023/06/08 02:25:16;;;;;;;19.75;9.18;;;;;;;14.82;80.85;151010.09;5061517;28;20024;-67
2023/06/08 02:27:44;;;;;;;16.15;8.95;;;;;;;14.78;80.36;151001.13;5062769;28;20096;-71
2023/06/08 02:30:12;;;;;;;21.08;8.52;;;;;;;14.82;81.07;151011.44;5063132;28;20386;-68
2023/06/08 02:32:41;;;;;;;12.75;8.27;;;;;;;14.79;80.54;151002.41;5062962;28;20088;-68
2023/06/08 02:35:08;;;;;;;15.82;8.80;;;;;;;14.87;80.35;151021.72;5062623;28;20036;-67
2023/06/08 02:37:34;;;;;;;17.52;8.50;;;;;;;14.89;80.59;151026.84;5062653;28;20029;-67
2023/06/08 02:40:00;;;;;;;21.98;8.98;;;;;;;14.92;80.57;151035.88;5062529;28;20032;-68
2023/06/08 02:42:26;;;;;;;12.60;8.23;;;;;;;14.92;80.21;151034.56;5062763;28;20044;-68
2023/06/08 02:44:52;;;;;;;16.00;8.13;;;;;;;14.88;80.32;151025.59;5062562;28;20029;-68
2023/06/08 02:47:17;;;;;;;13.95;7.80;;;;;;;14.96;80.12;151044.84;5062718;28;20032;-66
2023/06/08 02:49:43;;;;;;;11.77;7.03;;;;;;;14.99;79.89;151052.56;5062640;28;20104;-67
2023/06/08 02:52:09;;;;;;;12.70;8.00;;;;;;;14.98;80.21;151051.31;5062750;28;20067;-69
2023/06/08 02:54:36;;;;;;;11.25;7.72;;;;;;;15.09;79.62;151078.34;5044849;28;20036;-70
2023/06/08 02:57:02;;;;;;;11.55;8.07;;;;;;;15.16;78.87;151095.03;5062481;28;20325;-69
2023/06/08 02:59:29;;;;;;;11.63;8.70;;;;;;;15.13;79.37;151088.59;5062476;28;20194;-68
2023/06/08 03:01:56;;;;;;;12.98;8.07;;;;;;;15.22;79.13;151109.19;5062597;28;20025;-68
2023/06/08 03:04:22;;;;;;;12.30;7.97;;;;;;;15.27;78.51;151123.34;5061434;28;20071;-68
2023/06/08 03:06:53;;;;;;;11.85;7.70;;;;;;;15.40;78.51;151154.25;5062017;28;20040;-68
2023/06/08 03:09:29;;;;;;;10.20;7.82;;;;;;;15.39;78.77;151153.00;5064967;28;20032;-68
2023/06/08 03:11:56;;;;;;;11.00;7.63;;;;;;;15.47;78.15;151173.53;5066019;28;20079;-67
2023/06/08 03:14:28;;;;;;;10.75;7.32;;;;;;;15.42;77.88;151159.38;5065993;28;20245;-67
2023/06/08 03:16:57;;;;;;;8.93;6.78;;;;;;;15.51;77.66;151183.84;5065910;28;20333;-67
2023/06/08 03:19:25;;;;;;;12.65;8.13;;;;;;;15.65;77.31;151218.59;5066013;28;20293;-69
2023/06/08 03:21:50;;;;;;;12.52;7.55;;;;;;;15.66;77.39;151219.88;5065879;28;20071;-70
2023/06/08 03:24:17;;;;;;;14.57;8.10;;;;;;;15.76;77.66;151244.34;5066231;28;20040;-67
2023/06/08 03:26:43;;;;;;;12.98;8.02;;;;;;;15.85;77.54;151267.59;5065829;28;20221;-69
2023/06/08 03:29:08;;;;;;;10.93;7.97;;;;;;;15.96;76.52;151295.91;5066131;28;20025;-67
2023/06/08 03:31:36;;;;;;;11.23;7.40;;;;;;;15.96;76.73;151295.91;5066057;28;20290;-67
2023/06/08 03:34:04;;;;;;;10.88;7.20;;;;;;;15.99;77.48;151303.63;5065808;28;20066;-68
2023/06/08 03:36:33;;;;;;;14.50;7.63;;;;;;;16.09;76.51;151326.78;5065749;28;20096;-67
2023/06/08 03:39:03;;;;;;;10.45;7.45;;;;;;;16.08;76.81;151324.25;5065491;28;20032;-68
2023/06/08 03:41:28;;;;;;;12.65;7.32;;;;;;;16.22;76.55;151360.31;5064635;28;20027;-67
2023/06/08 03:43:54;;;;;;;11.63;7.32;;;;;;;16.32;76.48;151384.78;5065489;28;20033;-68
2023/06/08 03:46:20;;;;;;;14.63;7.55;;;;;;;16.34;76.09;151391.19;5065440;28;20033;-68
2023/06/08 03:48:47;;;;;;;12.25;8.60;;;;;;;16.43;75.95;151411.78;5065805;28;20298;-67
2023/06/08 03:51:13;;;;;;;9.80;7.15;;;;;;;16.70;75.43;151481.38;5065674;28;20167;-67
2023/06/08 03:53:39;;;;;;;9.02;7.22;;;;;;;16.78;75.38;151499.41;5061133;28;20274;-68
2023/06/08 03:56:05;;;;;;;12.10;7.43;;;;;;;16.80;75.22;151504.53;5056928;28;20040;-67
2023/06/08 03:58:32;;;;;;;12.05;7.32;;;;;;;16.84;75.56;151514.84;5065348;28;20435;-67
2023/06/08 04:00:58;;;;;;;13.15;7.60;;;;;;;16.88;74.73;151525.22;5065156;28;20025;-67
2023/06/08 04:03:25;;;;;;;10.73;7.10;;;;;;;16.93;74.91;151536.81;5065255;28;20074;-67
2023/06/08 04:05:51;;;;;;;12.68;7.60;;;;;;;17.06;74.66;151570.34;5064082;28;20072;-68
2023/06/08 04:08:17;;;;;;;8.45;7.15;;;;;;;17.05;74.36;151567.75;5065210;28;20348;-68
2023/06/08 04:10:45;;;;;;;10.30;7.22;;;;;;;17.11;74.47;151581.91;5064873;28;20079;-70
2023/06/08 04:13:11;;;;;;;12.85;7.82;;;;;;;17.06;74.17;151570.34;5065138;28;20074;-68
2023/06/08 04:15:36;;;;;;;9.85;6.72;;;;;;;17.18;73.88;151599.97;5064218;28;20052;-68
2023/06/08 04:18:02;;;;;;;10.75;6.88;;;;;;;17.17;74.29;151597.38;5063438;28;20145;-68
2023/06/08 04:20:28;;;;;;;9.23;6.55;;;;;;;17.08;74.15;151576.75;5065240;28;20242;-69
2023/06/08 04:22:54;;;;;;;11.20;7.13;;;;;;;17.13;73.87;151587.06;5064678;28;20063;-70
2023/06/08 04:25:24;;;;;;;9.50;6.85;;;;;;;17.18;73.83;151599.97;5064943;28;20052;-69
2023/06/08 04:27:51;;;;;;;9.27;7.32;;;;;;;17.17;73.76;151598.69;5064820;28;20025;-68
2023/06/08 04:30:17;;;;;;;10.63;7.38;;;;;;;17.28;73.95;151624.44;5064832;28;20048;-68
2023/06/08 04:32:43;;;;;;;13.30;7.10;;;;;;;17.27;73.99;151623.13;5064695;28;20222;-68
2023/06/08 04:35:08;;;;;;;13.15;7.00;;;;;;;17.32;73.03;151636.03;5064503;28;20024;-67
2023/06/08 04:37:34;;;;;;;9.52;7.18;;;;;;;17.45;72.17;151667.00;5064435;28;20062;-67
2023/06/08 04:40:03;;;;;;;11.10;7.43;;;;;;;17.39;72.69;151654.06;5064513;28;20029;-68
2023/06/08 04:42:32;;;;;;;10.15;7.05;;;;;;;17.49;72.22;151677.31;5064785;28;20201;-67
2023/06/08 04:45:00;;;;;;;9.55;6.88;;;;;;;17.60;72.57;151705.66;5064266;28;20033;-67
2023/06/08 04:47:29;;;;;;;9.63;6.53;;;;;;;17.72;72.26;151736.56;5064268;28;20095;-67
2023/06/08 04:49:56;;;;;;;8.77;6.72;;;;;;;17.80;71.26;151755.94;5064485;28;20040;-67
2023/06/08 04:52:22;;;;;;;8.57;6.35;;;;;;;17.95;71.06;151793.34;5064471;28;20035;-68
2023/06/08 04:54:52;;;;;;;10.57;7.00;;;;;;;17.89;71.85;151779.13;5062294;28;20021;-68
2023/06/08 04:57:21;;;;;;;10.38;7.05;;;;;;;17.87;70.48;151772.66;5064256;28;20037;-68
2023/06/08 04:59:47;;;;;;;8.75;6.53;;;;;;;17.93;71.43;151789.50;5064137;28;20195;-68
2023/06/08 05:02:13;;;;;;;8.02;6.22;;;;;;;18.13;71.16;151837.19;5057921;28;20086;-67
2023/06/08 05:04:38;;;;;;;10.07;6.30;;;;;;;18.22;70.41;151860.41;5063086;28;20187;-68
2023/06/08 05:07:04;;;;;;;9.15;6.65;;;;;;;18.16;70.73;151846.22;5064153;28;20048;-68
2023/06/08 05:09:30;;;;;;;9.85;6.47;;;;;;;18.34;69.62;151890.06;5064134;28;20151;-67
2023/06/08 05:11:55;;;;;;;12.27;6.18;;;;;;;18.54;68.94;151940.38;5063999;28;20044;-69
2023/06/08 05:14:21;;;;;;;11.13;6.47;;;;;;;18.71;68.66;151982.94;5063950;28;20071;-67
2023/06/08 05:16:47;;;;;;;20.55;6.43;;;;;;;18.85;67.95;152019.06;5063681;28;20029;-67
2023/06/08 05:19:13;;;;;;;9.10;5.80;;;;;;;19.01;67.41;152057.81;5064124;28;20033;-66
2023/06/08 05:21:39;;;;;;;8.70;5.35;;;;;;;18.99;64.80;152053.97;5063980;28;20329;-67
2023/06/08 05:24:06;;;;;;;7.53;6.25;;;;;;;19.06;64.82;152072.03;5063718;28;20241;-66
2023/06/08 05:26:32;;;;;;;9.77;6.13;;;;;;;19.22;64.83;152110.75;5063811;28;20041;-66
2023/06/08 05:28:58;;;;;;;6.22;5.63;;;;;;;19.26;65.66;152122.34;5063803;28;20025;-67
2023/06/08 05:31:23;;;;;;;7.13;5.63;;;;;;;19.33;65.63;152139.13;5062803;28;20199;-67
2023/06/08 05:33:49;;;;;;;11.57;7.78;;;;;;;19.21;65.19;152108.16;5063441;28;20068;-67
2023/06/08 05:36:14;;;;;;;9.55;5.68;;;;;;;19.31;65.13;152133.94;5063540;28;20025;-68
2023/06/08 05:38:40;;;;;;;10.23;7.20;;;;;;;19.21;65.84;152109.47;5063442;28;20032;-68
2023/06/08 05:41:06;;;;;;;7.72;6.00;;;;;;;19.33;64.12;152137.84;5063274;28;20363;-68
2023/06/08 05:43:32;;;;;;;10.07;5.93;;;;;;;19.40;63.57;152155.94;5063650;28;20256;-68
2023/06/08 05:45:57;;;;;;;6.20;5.43;;;;;;;19.40;63.68;152155.94;5063459;28;20369;-67
2023/06/08 05:48:23;;;;;;;10.43;6.28;;;;;;;19.30;63.99;152132.66;5063633;28;20025;-67
2023/06/08 05:50:49;;;;;;;7.93;5.15;;;;;;;19.48;64.06;152176.53;5058747;28;20536;-66
2023/06/08 05:53:14;;;;;;;9.57;5.40;;;;;;;19.36;63.25;152146.88;5055348;28;20033;-67
2023/06/08 05:55:41;;;;;;;6.20;5.60;;;;;;;19.35;61.15;152144.28;5057701;28;20025;-68
2023/06/08 05:58:08;;;;;;;8.52;5.43;;;;;;;19.37;60.98;152149.47;5045708;28;20033;-68
2023/06/08 06:00:34;;;;;;;11.45;5.15;;;;;;;19.44;60.46;152166.25;5063253;28;20056;-67
2023/06/08 06:02:59;;;;;;;7.15;5.18;;;;;;;19.67;60.97;152224.34;5063156;28;20045;-66
2023/06/08 06:05:25;;;;;;;11.27;5.47;;;;;;;19.81;61.60;152259.25;5062961;28;20041;-68
2023/06/08 06:07:50;;;;;;;10.00;4.72;;;;;;;19.72;60.14;152235.94;5063092;28;20305;-66
2023/06/08 06:10:16;;;;;;;7.18;4.90;;;;;;;19.90;60.79;152282.47;5063229;28;20032;-67
2023/06/08 06:12:42;;;;;;;9.32;5.20;;;;;;;19.92;60.97;152286.34;5063050;28;20052;-68
2023/06/08 06:15:08;;;;;;;6.38;5.05;;;;;;;20.00;60.55;152308.28;5062933;28;20059;-68
2023/06/08 06:17:33;;;;;;;5.18;3.85;;;;;;;19.95;54.95;152295.41;5062384;28;20352;-66
2023/06/08 06:19:59;;;;;;;6.10;3.30;;;;;;;19.81;52.82;152259.25;5062923;28;20037;-68
2023/06/08 06:22:24;;;;;;;4.63;3.03;;;;;;;19.80;52.24;152257.94;5062990;28;20370;-68
2023/06/08 06:24:50;;;;;;;82.40;7.45;;;;;;;19.75;50.16;152245.00;5062781;28;20017;-67
2023/06/08 06:27:16;;;;;;;5.55;3.08;;;;;;;19.69;48.06;152229.47;5043194;28;20029;-67
2023/06/08 06:29:41;;;;;;;4.53;2.97;;;;;;;19.88;50.32;152277.31;5058180;28;20025;-67
2023/06/08 06:32:08;;;;;;;10.10;3.35;;;;;;;19.85;48.80;152269.53;5062481;28;20218;-67
2023/06/08 06:34:33;;;;;;;10.73;4.18;;;;;;;19.96;49.09;152297.94;5062792;28;20029;-67
2023/06/08 06:36:59;;;;;;;4.97;3.35;;;;;;;20.09;51.29;152328.94;5061551;28;20040;-68
2023/06/08 06:39:25;;;;;;;3.88;3.45;;;;;;;20.00;51.63;152307.00;5062502;28;20037;-68
2023/06/08 06:41:50;;;;;;;3.90;3.50;;;;;;;20.14;51.74;152343.16;5064026;28;20324;-67
2023/06/08 06:44:16;;;;;;;6.68;3.78;;;;;;;20.15;51.10;152344.44;5066914;28;20029;-67
2023/06/08 06:46:41;;;;;;;6.07;3.70;;;;;;;20.42;52.22;152411.59;5066484;28;20029;-66
2023/06/08 06:49:07;;;;;;;6.25;3.80;;;;;;;20.29;52.59;152380.56;5064937;28;20370;-66
2023/06/08 06:51:33;;;;;;;4.63;3.38;;;;;;;20.31;50.74;152385.78;5066549;28;20075;-67
2023/06/08 06:53:58;;;;;;;3.72;3.33;;;;;;;20.47;51.84;152425.81;5066253;28;20036;-67
2023/06/08 06:56:24;;;;;;;4.43;3.40;;;;;;;20.62;52.06;152463.28;5061875;28;20028;-66
2023/06/08 06:58:52;;;;;;;6.28;3.92;;;;;;;20.55;52.83;152443.88;5054160;28;20032;-67
2023/06/08 07:01:18;;;;;;;3.75;3.28;;;;;;;20.76;53.75;152498.19;5065938;28;20194;-67
2023/06/08 07:03:44;;;;;;;4.18;3.25;;;;;;;20.64;51.98;152467.16;5066362;28;20040;-66
2023/06/08 07:06:10;;;;;;;6.25;3.55;;;;;;;20.41;49.27;152410.31;5065843;28;20043;-66
2023/06/08 07:08:36;;;;;;;5.88;4.03;;;;;;;20.60;48.12;152458.09;5061642;28;20230;-67
2023/06/08 07:11:02;;;;;;;6.88;3.75;;;;;;;20.65;46.88;152469.69;5055318;28;20061;-68
2023/06/08 07:13:27;;;;;;;3.70;3.28;;;;;;;20.65;45.46;152469.69;5066129;28;20063;-66
2023/06/08 07:15:54;;;;;;;5.50;3.10;;;;;;;20.91;46.57;152534.34;5066113;28;20016;-66
2023/06/08 07:18:20;;;;;;;4.13;3.20;;;;;;;20.93;46.63;152540.81;5061819;28;20029;-65
2023/06/08 07:20:45;;;;;;;4.43;3.17;;;;;;;21.10;46.71;152583.47;5061349;28;20047;-65
2023/06/08 07:23:11;;;;;;;6.07;3.60;;;;;;;21.13;47.76;152589.91;5065697;28;20267;-66
2023/06/08 07:25:39;;;;;;;8.55;3.40;;;;;;;21.15;46.91;152595.06;5064868;28;20028;-68
2023/06/08 07:28:05;;;;;;;5.80;3.58;;;;;;;21.27;45.15;152624.81;5065551;28;20040;-66
2023/06/08 07:30:31;;;;;;;4.90;3.40;;;;;;;21.26;45.57;152622.22;5065764;28;20084;-68
2023/06/08 07:33:01;;;;;;;6.07;3.83;;;;;;;21.07;46.91;152575.72;5065764;28;20032;-67
2023/06/08 07:35:26;;;;;;;8.27;3.63;;;;;;;21.34;47.02;152644.19;5065503;28;20032;-67
2023/06/08 07:37:53;;;;;;;4.70;3.60;;;;;;;21.41;46.73;152659.72;5065351;28;20029;-67
2023/06/08 07:40:18;;;;;;;6.25;3.28;;;;;;;21.46;46.11;152673.94;5065729;28;20029;-67
2023/06/08 07:42:46;;;;;;;6.43;3.20;;;;;;;21.41;44.26;152661.00;5065649;28;20040;-66
2023/06/08 07:45:12;;;;;;;10.27;3.95;;;;;;;21.40;45.36;152658.41;5058336;28;20025;-68
2023/06/08 07:47:39;;;;;;;7.20;4.43;;;;;;;21.52;46.22;152688.16;5064450;28;20393;-66
2023/06/08 07:50:06;;;;;;;4.15;3.30;;;;;;;21.65;45.72;152720.53;5064993;28;20197;-66
2023/06/08 07:52:32;;;;;;;5.93;3.15;;;;;;;21.73;45.69;152741.16;5064995;28;20048;-67
2023/06/08 07:54:57;;;;;;;8.93;3.50;;;;;;;21.36;44.89;152649.38;5064045;28;20025;-66
2023/06/08 07:57:23;;;;;;;8.77;3.75;;;;;;;21.79;45.55;152755.41;5064849;28;20028;-66
2023/06/08 07:59:49;;;;;;;5.35;3.38;;;;;;;21.91;45.00;152785.16;5064865;28;20483;-66
2023/06/08 08:02:14;;;;;;;3.60;2.90;;;;;;;22.08;43.49;152827.84;5065024;28;20298;-65
2023/06/08 08:04:40;;;;;;;4.43;3.35;;;;;;;21.93;44.37;152790.31;5060420;28;20086;-66
2023/06/08 08:07:06;;;;;;;3.53;3.17;;;;;;;21.97;43.25;152800.66;5064548;28;20049;-67
2023/06/08 08:09:32;;;;;;;5.60;3.55;;;;;;;21.92;42.99;152787.72;5064797;28;20078;-67
2023/06/08 08:11:57;;;;;;;3.65;3.17;;;;;;;21.79;44.46;152756.72;5064679;28;20040;-66
2023/06/08 08:14:23;;;;;;;4.60;3.60;;;;;;;21.58;42.70;152703.72;5063775;28;20029;-67
2023/06/08 08:16:48;;;;;;;3.95;3.17;;;;;;;21.04;42.50;152567.97;5062835;28;20099;-65
2023/06/08 08:19:16;;;;;;;3.83;3.22;;;;;;;21.46;43.30;152673.94;5064183;28;20052;-67
2023/06/08 08:21:41;;;;;;;6.05;2.70;;;;;;;21.69;44.09;152730.81;5057180;28;20296;-67
2023/06/08 08:24:07;;;;;;;7.03;3.97;;;;;;;21.85;43.40;152772.22;5067766;28;20043;-66
2023/06/08 08:26:34;;;;;;;8.18;3.50;;;;;;;21.94;44.03;152792.91;5064709;28;20045;-66
2023/06/08 08:28:59;;;;;;;5.75;3.72;;;;;;;21.88;43.34;152779.97;5064462;28;20048;-66
2023/06/08 08:31:25;;;;;;;6.90;3.60;;;;;;;21.92;43.42;152789.03;5059721;28;20044;-66
2023/06/08 08:33:51;;;;;;;7.63;3.45;;;;;;;22.03;43.04;152816.16;5043212;28;20079;-68
2023/06/08 08:36:17;;;;;;;4.70;3.58;;;;;;;22.02;40.50;152813.59;5063336;28;20052;-68
2023/06/08 08:38:43;;;;;;;6.63;4.03;;;;;;;22.31;41.88;152886.00;5064385;28;20052;-68
2023/06/08 08:41:13;;;;;;;5.38;3.30;;;;;;;22.30;42.10;152883.41;5064474;28;20110;-68
2023/06/08 08:43:39;;;;;;;5.38;3.55;;;;;;;22.39;39.92;152906.75;5064227;28;20033;-66
2023/06/08 08:46:07;;;;;;;5.78;3.72;;;;;;;22.39;40.62;152906.75;5064460;28;20372;-66
2023/06/08 08:48:38;;;;;;;11.05;3.70;;;;;;;22.29;40.20;152880.81;5064215;28;20036;-66
2023/06/08 08:51:05;;;;;;;5.10;3.67;;;;;;;22.45;41.38;152922.25;5064082;28;20102;-67
2023/06/08 08:53:33;;;;;;;4.32;3.00;;;;;;;22.55;41.00;152946.84;5064191;28;20033;-68
2023/06/08 08:55:59;;;;;;;6.88;3.90;;;;;;;22.20;38.91;152860.16;5063604;28;20339;-66
2023/06/08 08:58:25;;;;;;;6.38;3.50;;;;;;;22.49;38.91;152932.63;5063731;28;20045;-67
2023/06/08 09:00:51;;;;;;;4.50;3.40;;;;;;;22.61;40.32;152962.34;5063431;28;20108;-66
2023/06/08 09:03:17;;;;;;;6.63;3.67;;;;;;;22.76;40.82;152999.88;5064099;28;20056;-70
2023/06/08 09:05:44;;;;;;;6.65;3.67;;;;;;;22.85;39.35;153023.13;5063619;28;20071;-66
2023/06/08 09:08:10;;;;;;;7.85;3.53;;;;;;;22.84;38.24;153020.53;5064074;28;20037;-66
2023/06/08 09:10:36;;;;;;;6.25;3.90;;;;;;;22.70;36.72;152985.66;5063735;28;20037;-67
2023/06/08 09:13:02;;;;;;;5.13;3.65;;;;;;;22.40;39.21;152909.31;5063530;28;20051;-68
2023/06/08 09:15:30;;;;;;;8.05;3.65;;;;;;;22.44;39.64;152919.66;5063702;28;20368;-68
2023/06/08 09:17:57;;;;;;;5.90;3.78;;;;;;;22.64;39.52;152968.81;5062838;28;20036;-66
2023/06/08 09:20:33;;;;;;;7.78;3.90;;;;;;;22.55;40.38;152948.13;5063791;28;20028;-67
2023/06/08 09:23:17;;;;;;;10.65;4.30;;;;;;;22.24;40.07;152869.19;5063568;28;20077;-66
2023/06/08 09:25:43;;;;;;;5.45;3.88;;;;;;;22.53;39.38;152942.97;5063661;28;20033;-66
2023/06/08 09:28:28;;;;;;;6.45;3.25;;;;;;;22.44;38.86;152918.38;5063442;28;20310;-66
2023/06/08 09:30:56;;;;;;;5.93;3.53;;;;;;;22.85;39.86;153023.13;5063239;28;20031;-65
2023/06/08 09:33:27;;;;;;;5.93;3.85;;;;;;;22.63;37.99;152966.22;5063458;28;20325;-67
2023/06/08 09:35:56;;;;;;;5.10;3.30;;;;;;;22.85;39.56;153023.13;5063268;28;20036;-68
2023/06/08 09:38:25;;;;;;;7.07;4.32;;;;;;;22.91;39.57;153038.66;5063139;28;20048;-67
2023/06/08 09:40:51;;;;;;;4.90;3.50;;;;;;;22.80;37.24;153010.19;5062005;28;20283;-67
2023/06/08 09:43:33;;;;;;;7.15;3.72;;;;;;;22.61;37.66;152962.34;5062972;28;20029;-68
2023/06/08 09:45:59;;;;;;;6.05;3.63;;;;;;;22.71;36.62;152988.22;5062663;28;20028;-66
2023/06/08 09:48:25;;;;;;;3.33;3.03;;;;;;;22.89;37.46;153032.22;5056246;28;20135;-69
2023/06/08 09:51:00;;;;;;;5.13;3.00;;;;;;;23.08;38.20;153080.06;5057744;28;20031;-66
2023/06/08 09:53:26;;;;;;;6.78;3.65;;;;;;;22.91;37.25;153038.66;5062623;28;20314;-67
2023/06/08 09:55:54;;;;;;;6.22;4.00;;;;;;;22.53;37.55;152941.63;5062912;28;20318;-67
2023/06/08 09:58:27;;;;;;;8.05;3.90;;;;;;;22.41;36.19;152911.91;5063127;28;20314;-67
2023/06/08 10:01:00;;;;;;;6.35;3.78;;;;;;;22.65;37.14;152971.44;5062787;28;20302;-67
2023/06/08 10:03:33;;;;;;;4.55;3.25;;;;;;;22.93;38.54;153043.84;5061601;28;20029;-66
2023/06/08 10:06:00;;;;;;;6.65;3.80;;;;;;;23.02;37.80;153065.84;5058493;28;20056;-66
2023/06/08 10:08:27;;;;;;;6.88;3.85;;;;;;;22.82;36.40;153015.38;5062741;28;20041;-68
2023/06/08 10:10:54;;;;;;;10.60;4.40;;;;;;;;;;5062806;28;20021;-67
2023/06/08 10:13:21;;;;;;;4.35;3.95;;;;;;;23.12;36.82;153090.47;5063059;28;20025;-67
2023/06/08 10:15:47;;;;;;;7.30;3.50;;;;;;;23.10;36.61;153085.22;5062264;28;20079;-67
2023/06/08 10:18:13;;;;;;;7.10;3.40;;;;;;;23.29;38.32;153133.19;5061042;28;20251;-67
2023/06/08 10:20:39;;;;;;;6.63;3.47;;;;;;;23.37;37.88;153152.56;5061535;28;20048;-68
2023/06/08 10:23:06;;;;;;;5.55;3.45;;;;;;;23.31;37.19;153137.06;5062672;28;20033;-68
2023/06/08 10:25:33;;;;;;;8.70;3.50;;;;;;;23.31;36.76;153137.06;5062822;28;20031;-69
2023/06/08 10:28:07;;;;;;;9.20;4.32;;;;;;;23.35;36.63;153148.69;5061957;28;20044;-67
2023/06/08 10:30:42;;;;;;;6.53;4.20;;;;;;;23.18;35.99;153106.00;5050550;28;20033;-66
2023/06/08 10:33:19;;;;;;;5.32;3.90;;;;;;;23.00;35.45;153059.38;5061633;28;20118;-68
2023/06/08 10:36:07;;;;;;;6.78;3.80;;;;;;;23.21;36.74;153113.75;5050241;28;20026;-66
2023/06/08 10:38:51;;;;;;;7.22;4.30;;;;;;;23.22;37.41;153116.34;5053971;28;20052;-66
2023/06/08 10:41:39;;;;;;;5.10;3.95;;;;;;;23.07;34.62;153078.78;5061067;28;20059;-67
2023/06/08 10:44:05;;;;;;;6.25;3.47;;;;;;;23.24;36.33;153121.53;5062091;28;20041;-66
2023/06/08 10:46:43;;;;;;;5.15;3.60;;;;;;;23.02;36.61;153064.56;5061971;28;20031;-65
2023/06/08 10:49:09;;;;;;;3.95;3.40;;;;;;;22.99;36.69;153056.75;5056493;28;20044;-66
2023/06/08 10:51:44;;;;;;;7.40;3.72;;;;;;;22.94;35.91;153045.13;5062521;28;20202;-66
2023/06/08 10:54:20;;;;;;;7.18;4.20;;;;;;;23.10;37.33;153085.22;5062360;28;20336;-66
2023/06/08 10:56:52;;;;;;;5.07;3.92;;;;;;;23.05;36.25;153072.31;5062252;28;20025;-67
2023/06/08 10:59:37;;;;;;;6.32;3.60;;;;;;;23.03;35.89;153068.44;5062305;28;20108;-67
2023/06/08 11:02:06;;;;;;;5.40;3.88;;;;;;;22.94;35.84;153045.13;5049764;28;20039;-69
2023/06/08 11:04:34;;;;;;;8.10;3.38;;;;;;;23.10;36.00;153086.56;5061159;28;20262;-67
2023/06/08 11:07:04;;;;;;;5.18;3.63;;;;;;;23.19;35.47;153107.31;5062590;28;20244;-68
2023/06/08 11:09:31;;;;;;;8.25;4.00;;;;;;;23.11;35.75;153087.88;5062152;28;20040;-67
2023/06/08 11:12:00;;;;;;;5.25;3.55;;;;;;;23.05;35.91;153073.59;5061992;28;20033;-64
2023/06/08 11:14:26;;;;;;;5.53;3.78;;;;;;;22.99;35.67;153058.09;5062153;28;20032;-67
2023/06/08 11:16:53;;;;;;;4.35;3.30;;;;;;;23.19;37.61;153107.31;5062266;28;20040;-67
2023/06/08 11:19:23;;;;;;;4.97;3.72;;;;;;;23.10;37.55;153085.22;5062295;28;20201;-67
2023/06/08 11:21:52;;;;;;;6.70;3.75;;;;;;;23.20;35.88;153109.88;5061789;28;20088;-66
2023/06/08 11:24:18;;;;;;;5.22;4.07;;;;;;;22.91;36.13;153038.66;5060991;28;20221;-67